CheckWX is a tool to help pilots better visualize weather data.  It is not intended as a substitute for an official pre-flight weather briefing.

02:55:32 UTC

KLOZ TAF
London-Corbin Arpt-Magee Field Airport
London, Kentucky, USA
KLOZ 242327Z 2500/2524 24006KT P6SM VCSH SCT030 TEMPO 2500/2502 BKN015 OVC050 FM250200 25008KT P6SM VCSH BKN015 OVC050

Jan-25@
00:00 UTC

Jan-25 @ 00:00 UTC

Jan-25@
02:00 UTC

Jan-25 @ 02:00 UTC

KLOZ 242327Z 2500/2524 24006KT P6SM VCSH SCT030

Expired

Wind
  • 240° at 6 KTS
Cloud Levels
  • Scattered at 3,000' AGL

Jan-25@
00:00 UTC

Jan-25 @ 00:00 UTC

Jan-25@
02:00 UTC

Jan-25 @ 02:00 UTC

TEMPO 2500/2502 BKN015 OVC050

Expired

Cloud Levels
  • Broken at 1,500' AGL
  • Overcast at 5,000' AGL

Jan-25@
02:00 UTC

Jan-25 @ 02:00 UTC

Jan-26@
00:00 UTC

Jan-26 @ 00:00 UTC

FM250200 25008KT P6SM VCSH BKN015 OVC050

From

From Standard forecast or significant change

Wind
  • 250° at 8 KTS
Cloud Levels
  • Broken at 1,500' AGL
  • Overcast at 5,000' AGL